Stevenston, United Kingdom
Current Conditions -  °F | °C
As of 3:50 AM on Sunday 23 Nov 2014 (Local Time) from EGPK Reporting Station
Scattered Clouds Scattered Clouds  
Wind Chill: 42°   Ceiling: Unl
Heat Index: 46°   Visibility: 6mi
Dew Point: 39°   Wind: 8mph
Humidity: 76%   Direction: 280°W
Pressure: 30"   Gusts: NA
Location:  55.64°N, 4.75°W
Report Text: EGPK 230350Z 28007KT 9999 FEW015 SCT032 08/04 Q1016
Loading
Personal Weather Stations






























Interactive Weather Map New forecast layout! Learn more

10-Day Weather Forecast

Advertisements
Track Severe Weather on mobile